createdAt,value
2022-08-25T00:00:23.147Z,22.90
2022-08-25T00:02:55.937Z,22.88
2022-08-25T00:05:32.145Z,22.86
2022-08-25T00:08:02.284Z,22.83
2022-08-25T00:10:34.917Z,22.83
2022-08-25T00:13:05.331Z,22.77
2022-08-25T00:15:34.878Z,22.81
2022-08-25T00:18:03.917Z,22.75
2022-08-25T00:20:36.052Z,22.73
2022-08-25T00:23:09.035Z,22.68
2022-08-25T00:25:39.091Z,22.66
2022-08-25T00:28:08.630Z,22.61
2022-08-25T00:30:37.949Z,22.56
2022-08-25T00:33:07.348Z,22.52
2022-08-25T00:35:36.168Z,22.51
2022-08-25T00:38:05.458Z,22.45
2022-08-25T00:40:35.279Z,22.42
2022-08-25T00:43:05.968Z,22.39
2022-08-25T00:45:35.877Z,22.40
2022-08-25T00:48:06.077Z,22.36
2022-08-25T00:50:36.788Z,22.29
2022-08-25T00:53:06.919Z,22.29
2022-08-25T00:55:41.159Z,22.21
2022-08-25T00:58:18.258Z,22.22
2022-08-25T01:00:51.024Z,22.22
2022-08-25T01:03:21.721Z,22.15
2022-08-25T01:05:55.534Z,22.11
2022-08-25T01:08:29.218Z,22.05
2022-08-25T01:11:02.857Z,22.01
2022-08-25T01:13:39.103Z,21.95
2022-08-25T01:16:08.431Z,21.75
2022-08-25T01:18:50.996Z,21.84
2022-08-25T01:21:24.626Z,21.77
2022-08-25T01:23:54.063Z,21.75
2022-08-25T01:26:30.244Z,21.66
2022-08-25T01:29:19.058Z,21.75
2022-08-25T01:31:48.400Z,21.65
2022-08-25T01:34:20.305Z,21.63
2022-08-25T01:36:50.400Z,21.70
2022-08-25T01:39:19.377Z,21.68
2022-08-25T01:42:10.205Z,21.66
2022-08-25T01:44:42.232Z,21.65
2022-08-25T01:47:11.960Z,21.59
2022-08-25T01:49:40.693Z,21.61
2022-08-25T01:52:17.345Z,21.63
2022-08-25T01:54:46.125Z,21.68
2022-08-25T01:57:14.795Z,21.66
2022-08-25T01:59:44.972Z,21.69
2022-08-25T02:02:14.126Z,21.73
2022-08-25T02:04:44.405Z,21.79
2022-08-25T02:07:14.744Z,21.79
2022-08-25T02:09:44.353Z,21.75
2022-08-25T02:12:13.142Z,21.79
2022-08-25T02:15:02.974Z,21.75
2022-08-25T02:17:31.941Z,21.75
2022-08-25T02:20:00.681Z,21.71
2022-08-25T02:22:30.675Z,21.76
2022-08-25T02:24:59.366Z,21.71
2022-08-25T02:27:28.469Z,21.72
2022-08-25T02:29:57.233Z,21.67
2022-08-25T02:32:26.000Z,21.67
2022-08-25T02:34:54.767Z,21.64
2022-08-25T02:37:23.592Z,21.60
2022-08-25T02:39:53.680Z,21.60
2022-08-25T02:42:22.535Z,21.56
2022-08-25T02:44:51.378Z,21.59
2022-08-25T02:47:20.081Z,21.61
2022-08-25T02:49:55.968Z,21.62
2022-08-25T02:52:25.398Z,21.61
2022-08-25T02:54:55.616Z,21.61
2022-08-25T02:57:24.515Z,21.68
2022-08-25T02:59:53.678Z,21.78
2022-08-25T03:02:22.680Z,21.75
2022-08-25T03:04:52.317Z,21.71
2022-08-25T03:07:23.876Z,21.73
2022-08-25T03:09:54.876Z,21.74
2022-08-25T03:12:23.812Z,21.79
2022-08-25T03:14:52.549Z,21.79
2022-08-25T03:17:21.316Z,21.87
2022-08-25T03:19:50.908Z,21.85
2022-08-25T03:22:19.565Z,21.87
2022-08-25T03:24:48.449Z,21.86
2022-08-25T03:27:17.997Z,21.81
2022-08-25T03:29:47.197Z,21.80
2022-08-25T03:32:15.978Z,21.75
2022-08-25T03:34:44.909Z,21.62
2022-08-25T03:37:13.819Z,21.61
2022-08-25T03:39:42.623Z,21.59
2022-08-25T03:42:12.752Z,21.56
2022-08-25T03:44:42.855Z,21.57
2022-08-25T03:47:11.707Z,21.57
2022-08-25T03:49:41.154Z,21.48
2022-08-25T03:52:09.928Z,21.53
2022-08-25T03:54:38.652Z,21.50
2022-08-25T03:57:07.445Z,21.40
2022-08-25T03:59:38.573Z,21.22
2022-08-25T04:02:10.270Z,21.15
2022-08-25T04:04:39.052Z,21.10
2022-08-25T04:07:07.874Z,21.13
2022-08-25T04:09:37.028Z,21.17
2022-08-25T04:12:06.923Z,21.17
2022-08-25T04:14:35.872Z,21.16
2022-08-25T04:17:05.416Z,21.17
2022-08-25T04:19:35.514Z,21.18
2022-08-25T04:22:04.321Z,21.18
2022-08-25T04:24:33.291Z,21.18
2022-08-25T04:27:02.385Z,21.18
2022-08-25T04:29:31.083Z,21.17
2022-08-25T04:32:00.065Z,21.14
2022-08-25T04:34:31.449Z,21.08
2022-08-25T04:37:05.681Z,21.03
2022-08-25T04:39:35.013Z,20.97
2022-08-25T04:42:05.019Z,20.99
2022-08-25T04:44:34.228Z,20.94
2022-08-25T04:47:03.484Z,20.99
2022-08-25T04:49:32.215Z,21.00
2022-08-25T04:52:02.598Z,20.91
2022-08-25T04:54:37.326Z,20.84
2022-08-25T04:57:06.938Z,20.75
2022-08-25T04:59:36.087Z,20.76
2022-08-25T05:02:06.685Z,20.79
2022-08-25T05:04:38.124Z,20.83
2022-08-25T05:07:08.497Z,20.86
2022-08-25T05:09:37.943Z,21.03
2022-08-25T05:12:07.483Z,21.02
2022-08-25T05:14:36.394Z,21.04
2022-08-25T05:17:05.156Z,21.04
2022-08-25T05:19:34.045Z,20.99
2022-08-25T05:22:03.281Z,20.94
2022-08-25T05:24:33.534Z,20.96
2022-08-25T05:27:03.936Z,21.03
2022-08-25T05:29:32.728Z,21.04
2022-08-25T05:32:01.658Z,21.09
2022-08-25T05:34:31.224Z,21.18
2022-08-25T05:37:03.476Z,21.17
2022-08-25T05:39:33.946Z,21.27
2022-08-25T05:42:02.719Z,21.33
2022-08-25T05:44:31.506Z,21.35
2022-08-25T05:47:00.323Z,21.45
2022-08-25T05:49:29.293Z,21.50
2022-08-25T05:51:58.201Z,21.57
2022-08-25T05:54:27.234Z,21.71
2022-08-25T05:56:57.823Z,21.70
2022-08-25T05:59:28.457Z,21.94
2022-08-25T06:02:14.765Z,22.05
2022-08-25T06:04:43.598Z,22.10
2022-08-25T06:07:13.183Z,22.16
2022-08-25T06:09:46.029Z,22.17
2022-08-25T06:12:17.036Z,22.18
2022-08-25T06:14:46.315Z,22.27
2022-08-25T06:17:15.198Z,22.34
2022-08-25T06:19:44.564Z,22.45
2022-08-25T06:22:14.725Z,22.50
2022-08-25T06:24:43.502Z,22.56
2022-08-25T06:27:12.335Z,22.62
2022-08-25T06:29:42.424Z,22.66
2022-08-25T06:32:11.240Z,22.70
2022-08-25T06:34:39.954Z,22.73
2022-08-25T06:37:08.961Z,22.79
2022-08-25T06:39:37.705Z,22.79
2022-08-25T06:42:07.466Z,22.85
2022-08-25T06:44:36.405Z,22.92
2022-08-25T06:47:07.157Z,22.98
2022-08-25T06:49:36.346Z,23.09
2022-08-25T06:52:06.142Z,23.10
2022-08-25T06:54:34.786Z,23.09
2022-08-25T06:57:04.132Z,23.10
2022-08-25T06:59:32.929Z,23.08
2022-08-25T07:02:03.209Z,23.16
2022-08-25T07:04:34.612Z,23.19
2022-08-25T07:07:03.806Z,23.29
2022-08-25T07:09:36.287Z,23.32
2022-08-25T07:12:11.033Z,23.38
2022-08-25T07:14:53.417Z,23.47
2022-08-25T07:17:31.696Z,23.52
2022-08-25T07:20:02.036Z,23.62
2022-08-25T07:22:31.953Z,23.72
2022-08-25T07:25:00.710Z,23.75
2022-08-25T07:27:29.491Z,23.73
2022-08-25T07:29:59.463Z,23.75
2022-08-25T07:32:28.193Z,23.73
2022-08-25T07:35:14.503Z,23.77
2022-08-25T07:37:49.600Z,23.79
2022-08-25T07:40:22.541Z,23.80
2022-08-25T07:42:53.053Z,23.73
2022-08-25T07:45:30.355Z,23.87
2022-08-25T07:48:00.031Z,23.85
2022-08-25T07:50:33.370Z,23.82
2022-08-25T07:53:03.727Z,23.91
2022-08-25T07:55:33.037Z,23.99
2022-08-25T07:58:01.866Z,24.07
2022-08-25T08:00:34.237Z,24.12
2022-08-25T08:03:06.879Z,24.12
2022-08-25T08:05:41.564Z,24.31
2022-08-25T08:08:12.450Z,24.34
2022-08-25T08:11:03.178Z,24.43
2022-08-25T08:13:31.325Z,24.44
2022-08-25T08:16:00.023Z,24.45
2022-08-25T08:18:28.991Z,24.46
2022-08-25T08:20:57.886Z,24.40
2022-08-25T08:23:29.536Z,24.32
2022-08-25T08:25:58.447Z,24.17
2022-08-25T08:28:28.197Z,24.20
2022-08-25T08:30:57.378Z,24.13
2022-08-25T08:33:27.675Z,24.09
2022-08-25T08:36:05.153Z,23.94
2022-08-25T08:38:37.141Z,23.99
2022-08-25T08:41:54.559Z,23.93
2022-08-25T08:44:41.614Z,23.88
2022-08-25T08:47:20.013Z,23.87
2022-08-25T08:50:05.987Z,23.84
2022-08-25T08:52:46.202Z,23.80
2022-08-25T08:55:29.269Z,23.78
2022-08-25T08:58:02.796Z,23.75
2022-08-25T09:00:38.695Z,23.71
2022-08-25T09:03:11.112Z,23.54
2022-08-25T09:05:57.635Z,23.56
2022-08-25T09:08:26.614Z,23.59
2022-08-25T09:11:12.233Z,23.62
2022-08-25T09:14:10.876Z,23.79
2022-08-25T09:16:56.086Z,23.87
2022-08-25T09:19:58.402Z,24.04
2022-08-25T09:22:46.787Z,24.16
2022-08-25T09:25:48.694Z,24.24
2022-08-25T09:28:27.229Z,24.22
2022-08-25T09:31:02.118Z,24.27
2022-08-25T09:33:35.595Z,24.34
2022-08-25T09:36:08.806Z,24.51
2022-08-25T09:38:38.971Z,24.71
2022-08-25T09:41:11.410Z,24.76
2022-08-25T09:43:44.751Z,24.92
2022-08-25T09:46:18.667Z,25.02
2022-08-25T09:48:56.551Z,24.95
2022-08-25T09:51:37.886Z,25.11
2022-08-25T09:54:25.651Z,25.03
2022-08-25T09:57:35.092Z,25.00
2022-08-25T10:00:21.814Z,24.96
2022-08-25T10:03:11.836Z,25.02
2022-08-25T10:06:13.151Z,25.06
2022-08-25T10:08:59.039Z,25.19
2022-08-25T10:11:39.665Z,25.31
2022-08-25T10:14:21.287Z,25.41
2022-08-25T10:16:52.066Z,25.62
2022-08-25T10:19:28.246Z,25.78
2022-08-25T10:22:11.238Z,25.83
2022-08-25T10:24:44.243Z,25.78
2022-08-25T10:27:29.168Z,25.62
2022-08-25T10:30:21.023Z,25.30
2022-08-25T10:33:14.364Z,25.10
2022-08-25T10:36:00.479Z,25.02
2022-08-25T10:38:43.078Z,24.80
2022-08-25T10:41:36.137Z,24.73
2022-08-25T10:44:37.016Z,24.49
2022-08-25T10:47:42.889Z,24.26
2022-08-25T10:50:25.789Z,24.08
2022-08-25T10:53:15.980Z,23.90
2022-08-25T10:56:03.357Z,23.85
2022-08-25T10:59:20.158Z,24.00
2022-08-25T11:02:22.849Z,24.20
2022-08-25T11:05:01.882Z,24.42
2022-08-25T11:07:39.411Z,24.57
2022-08-25T11:10:15.329Z,24.67
2022-08-25T11:12:48.599Z,24.75
2022-08-25T11:15:25.373Z,24.69
2022-08-25T11:17:59.255Z,24.64
2022-08-25T11:20:39.184Z,24.48
2022-08-25T11:23:18.848Z,24.32
2022-08-25T11:25:53.444Z,24.48
2022-08-25T11:28:35.018Z,24.25
2022-08-25T11:31:06.729Z,24.33
2022-08-25T11:33:36.135Z,24.28
2022-08-25T11:36:29.352Z,24.16
2022-08-25T11:39:16.716Z,23.86
2022-08-25T11:42:05.248Z,24.08
2022-08-25T11:45:05.438Z,24.11
2022-08-25T11:48:02.743Z,24.21
2022-08-25T11:50:35.778Z,24.39
2022-08-25T11:53:26.723Z,24.37
2022-08-25T11:56:04.572Z,24.15
2022-08-25T11:58:47.977Z,24.08
2022-08-25T12:02:10.112Z,24.10
2022-08-25T12:04:44.747Z,24.19
2022-08-25T12:07:25.790Z,24.25
2022-08-25T12:10:22.697Z,24.10
2022-08-25T12:13:10.317Z,24.10
2022-08-25T12:16:02.463Z,23.94
2022-08-25T12:18:46.672Z,24.03
2022-08-25T12:21:33.993Z,23.77
2022-08-25T12:24:14.156Z,23.82
2022-08-25T12:26:54.024Z,23.86
2022-08-25T12:29:34.194Z,23.82
2022-08-25T12:33:00.935Z,23.72
2022-08-25T12:35:33.345Z,23.67
2022-08-25T12:38:07.410Z,23.41
2022-08-25T12:40:54.320Z,23.62
2022-08-25T12:43:37.365Z,23.82
2022-08-25T12:46:39.558Z,23.94
2022-08-25T12:49:32.328Z,24.16
2022-08-25T12:52:07.896Z,24.26
2022-08-25T12:54:56.651Z,24.17
2022-08-25T12:57:46.737Z,24.28
2022-08-25T13:03:52.492Z,24.08
2022-08-25T13:06:48.973Z,24.03
2022-08-25T13:10:14.008Z,23.82
2022-08-25T13:12:52.684Z,23.92
2022-08-25T13:15:38.684Z,24.02
2022-08-25T13:18:26.900Z,24.17
2022-08-25T13:21:12.948Z,24.26
2022-08-25T13:23:45.890Z,24.29
2022-08-25T13:26:22.608Z,24.38
2022-08-25T13:28:58.190Z,24.39
2022-08-25T13:31:29.900Z,23.98
2022-08-25T13:34:03.144Z,23.90
2022-08-25T13:37:03.001Z,23.78
2022-08-25T13:39:53.163Z,23.66
2022-08-25T13:42:27.405Z,23.56
2022-08-25T13:44:58.276Z,23.42
2022-08-25T13:47:46.817Z,23.45
2022-08-25T13:50:30.105Z,23.59
2022-08-25T13:53:05.084Z,23.44
2022-08-25T13:55:51.516Z,23.49
2022-08-25T13:58:39.217Z,23.57
2022-08-25T14:01:22.264Z,23.43
2022-08-25T14:04:29.430Z,23.21
2022-08-25T14:07:26.554Z,23.03
2022-08-25T14:10:08.904Z,23.22
2022-08-25T14:12:44.965Z,23.11
2022-08-25T14:15:33.433Z,23.12
2022-08-25T14:18:07.519Z,23.13
2022-08-25T14:20:39.616Z,23.20
2022-08-25T14:23:19.010Z,23.21
2022-08-25T14:25:51.942Z,23.35
2022-08-25T14:28:24.498Z,23.38
2022-08-25T14:30:59.136Z,23.50
2022-08-25T14:33:36.351Z,23.68
2022-08-25T14:36:07.016Z,23.75
2022-08-25T14:38:39.037Z,24.06
2022-08-25T14:41:12.425Z,24.20
2022-08-25T14:43:41.464Z,24.32
2022-08-25T14:46:19.552Z,24.32
2022-08-25T14:48:52.273Z,24.46
2022-08-25T14:51:21.390Z,24.35
2022-08-25T14:53:53.665Z,24.29
2022-08-25T14:56:25.337Z,23.72
2022-08-25T14:58:59.602Z,23.97
2022-08-25T15:01:30.473Z,23.66
2022-08-25T15:04:06.121Z,23.90
2022-08-25T15:06:37.229Z,23.92
2022-08-25T15:09:11.566Z,23.88
2022-08-25T15:11:45.742Z,23.73
2022-08-25T15:14:18.494Z,23.40
2022-08-25T15:16:59.333Z,23.40
2022-08-25T15:19:29.579Z,23.22
2022-08-25T15:21:59.752Z,23.24
2022-08-25T15:24:29.821Z,23.60
2022-08-25T15:27:05.878Z,23.74
2022-08-25T15:29:40.452Z,23.70
2022-08-25T15:32:10.571Z,23.60
2022-08-25T15:34:39.942Z,23.47
2022-08-25T15:37:12.785Z,23.04
2022-08-25T15:39:43.293Z,23.08
2022-08-25T15:42:16.561Z,22.83
2022-08-25T15:44:53.249Z,22.87
2022-08-25T15:47:23.269Z,22.83
2022-08-25T15:49:53.314Z,22.90
2022-08-25T15:52:24.163Z,22.89
2022-08-25T15:54:57.112Z,22.94
2022-08-25T15:57:27.979Z,22.83
2022-08-25T15:59:57.184Z,22.71
2022-08-25T16:02:27.569Z,22.64
2022-08-25T16:04:56.483Z,22.52
2022-08-25T16:07:25.202Z,22.51
2022-08-25T16:09:57.514Z,22.40
2022-08-25T16:12:28.714Z,22.52
2022-08-25T16:14:58.246Z,22.83
2022-08-25T16:17:27.388Z,22.94
2022-08-25T16:19:56.183Z,23.23
2022-08-25T16:22:24.940Z,22.75
2022-08-25T16:24:54.836Z,22.73
2022-08-25T16:27:24.478Z,22.73
2022-08-25T16:29:54.597Z,22.87
2022-08-25T16:32:24.101Z,22.91
2022-08-25T16:34:53.357Z,22.79
2022-08-25T16:37:22.044Z,22.72
2022-08-25T16:39:54.491Z,22.83
2022-08-25T16:42:24.402Z,23.01
2022-08-25T16:44:56.497Z,23.20
2022-08-25T16:47:27.062Z,23.27
2022-08-25T16:49:56.369Z,23.35
2022-08-25T16:52:44.650Z,23.13
2022-08-25T16:55:15.289Z,22.86
2022-08-25T16:57:49.736Z,22.24
2022-08-25T17:00:25.143Z,22.01
2022-08-25T17:02:59.450Z,21.87
2022-08-25T17:05:30.525Z,21.67
2022-08-25T17:08:19.165Z,21.41
2022-08-25T17:10:49.116Z,21.18
2022-08-25T17:13:18.415Z,21.22
2022-08-25T17:15:52.325Z,21.00
2022-08-25T17:18:22.037Z,21.05
2022-08-25T17:21:04.016Z,20.94
2022-08-25T17:23:34.699Z,20.74
2022-08-25T17:26:05.736Z,20.74
2022-08-25T17:28:35.331Z,20.68
2022-08-25T17:31:06.701Z,20.56
2022-08-25T17:33:39.034Z,20.56
2022-08-25T17:36:13.062Z,20.52
2022-08-25T17:38:47.080Z,20.43
2022-08-25T17:41:18.217Z,20.38
2022-08-25T17:43:47.411Z,20.28
2022-08-25T17:46:21.602Z,20.20
2022-08-25T17:48:51.217Z,20.12
2022-08-25T17:51:23.656Z,20.07
2022-08-25T17:53:53.966Z,20.03
2022-08-25T17:56:28.978Z,20.01
2022-08-25T17:58:58.795Z,20.00
2022-08-25T18:01:40.482Z,20.03
2022-08-25T18:04:17.863Z,20.03
2022-08-25T18:06:52.466Z,20.03
2022-08-25T18:09:22.066Z,20.03
2022-08-25T18:11:52.625Z,20.01
2022-08-25T18:14:25.445Z,20.03
2022-08-25T18:16:57.230Z,20.05
2022-08-25T18:19:26.604Z,20.06
2022-08-25T18:22:04.451Z,20.07
2022-08-25T18:24:35.782Z,20.19
2022-08-25T18:27:08.010Z,20.19
2022-08-25T18:29:38.170Z,20.19
2022-08-25T18:32:12.386Z,20.19
2022-08-25T18:34:42.046Z,20.17
2022-08-25T18:37:32.880Z,20.11
2022-08-25T18:40:20.061Z,20.07
2022-08-25T18:42:49.766Z,20.00
2022-08-25T18:45:20.475Z,19.86
2022-08-25T18:47:53.591Z,19.75
2022-08-25T18:50:23.656Z,19.68
2022-08-25T18:52:55.044Z,19.77
2022-08-25T18:55:26.108Z,19.62
2022-08-25T18:57:57.215Z,19.55
2022-08-25T19:00:30.574Z,19.48
2022-08-25T19:03:03.288Z,19.41
2022-08-25T19:05:37.242Z,19.43
2022-08-25T19:08:13.813Z,19.38
2022-08-25T19:10:51.331Z,19.41
2022-08-25T19:13:22.715Z,19.34
2022-08-25T19:15:55.487Z,19.29
2022-08-25T19:18:29.256Z,19.26
2022-08-25T19:21:01.923Z,19.24
2022-08-25T19:23:33.799Z,19.24
2022-08-25T19:26:03.444Z,19.13
2022-08-25T19:28:33.321Z,19.11
2022-08-25T19:31:04.514Z,19.07
2022-08-25T19:33:44.093Z,19.14
2022-08-25T19:36:16.696Z,19.12
2022-08-25T19:38:46.459Z,19.07
2022-08-25T19:41:19.316Z,19.05
2022-08-25T19:43:56.536Z,19.04
2022-08-25T19:46:33.426Z,19.00
2022-08-25T19:49:11.969Z,18.99
2022-08-25T19:51:51.165Z,19.05
2022-08-25T19:54:25.690Z,19.11
2022-08-25T19:56:55.779Z,19.00
2022-08-25T19:59:34.225Z,18.94
2022-08-25T20:02:07.980Z,19.02
2022-08-25T20:04:41.614Z,19.03
2022-08-25T20:07:12.396Z,19.05
2022-08-25T20:09:43.181Z,19.04
2022-08-25T20:12:17.553Z,18.91
2022-08-25T20:14:48.185Z,18.92
2022-08-25T20:17:23.882Z,18.88
2022-08-25T20:19:59.354Z,18.89
2022-08-25T20:22:31.773Z,18.79
2022-08-25T20:25:13.764Z,18.72
2022-08-25T20:27:47.569Z,18.72
2022-08-25T20:30:20.760Z,18.79
2022-08-25T20:32:52.470Z,18.77
2022-08-25T20:35:26.653Z,18.79
2022-08-25T20:37:58.263Z,18.76
2022-08-25T20:40:30.778Z,18.65
2022-08-25T20:43:03.459Z,18.67
2022-08-25T20:45:33.475Z,18.64
2022-08-25T20:48:02.367Z,18.66
2022-08-25T20:50:33.809Z,18.70
2022-08-25T20:53:02.656Z,18.67
2022-08-25T20:55:32.324Z,18.63
2022-08-25T20:58:10.509Z,18.61
2022-08-25T21:00:39.893Z,18.59
2022-08-25T21:03:08.784Z,18.63
2022-08-25T21:05:43.527Z,18.66
2022-08-25T21:08:12.730Z,18.63
2022-08-25T21:10:42.146Z,18.45
2022-08-25T21:13:10.873Z,18.56
2022-08-25T21:15:41.384Z,18.53
2022-08-25T21:18:10.248Z,18.51
2022-08-25T21:20:41.943Z,18.52
2022-08-25T21:23:10.727Z,18.51
2022-08-25T21:25:42.359Z,18.50
2022-08-25T21:28:11.245Z,18.49
2022-08-25T21:30:44.687Z,18.55
2022-08-25T21:33:17.464Z,18.60
2022-08-25T21:35:49.050Z,18.61
2022-08-25T21:38:17.872Z,18.61
2022-08-25T21:40:46.721Z,18.59
2022-08-25T21:43:18.521Z,18.60
2022-08-25T21:45:47.497Z,18.42
2022-08-25T21:48:17.210Z,18.34
2022-08-25T21:50:48.169Z,18.42
2022-08-25T21:53:16.863Z,18.33
2022-08-25T21:55:46.047Z,18.29
2022-08-25T21:58:14.772Z,18.38
2022-08-25T22:00:45.012Z,18.39
2022-08-25T22:03:13.854Z,18.33
2022-08-25T22:05:43.220Z,18.33
2022-08-25T22:08:16.766Z,18.35
2022-08-25T22:10:49.518Z,18.21
2022-08-25T22:13:19.372Z,18.21
2022-08-25T22:15:52.031Z,18.26
2022-08-25T22:18:21.424Z,18.20
2022-08-25T22:20:51.331Z,18.25
2022-08-25T22:23:21.609Z,18.19
2022-08-25T22:25:57.205Z,18.17
2022-08-25T22:28:27.117Z,18.17
2022-08-25T22:31:02.766Z,18.23
2022-08-25T22:33:31.965Z,18.17
2022-08-25T22:36:00.784Z,18.12
2022-08-25T22:38:31.680Z,18.12
2022-08-25T22:41:03.697Z,18.10
2022-08-25T22:43:32.372Z,18.14
2022-08-25T22:46:03.675Z,18.14
2022-08-25T22:48:32.853Z,18.09
2022-08-25T22:51:09.678Z,18.00
2022-08-25T22:53:42.418Z,18.01
2022-08-25T22:56:13.001Z,18.06
2022-08-25T22:58:51.873Z,17.96
2022-08-25T23:01:21.980Z,17.95
2022-08-25T23:03:50.835Z,17.93
2022-08-25T23:06:24.727Z,17.94
2022-08-25T23:08:56.353Z,17.95
2022-08-25T23:11:26.902Z,17.96
2022-08-25T23:14:00.515Z,17.95
2022-08-25T23:16:31.761Z,17.93
2022-08-25T23:19:00.699Z,17.93
2022-08-25T23:21:47.203Z,17.82
2022-08-25T23:24:29.471Z,17.92
2022-08-25T23:26:59.883Z,17.99
2022-08-25T23:29:30.857Z,17.92
2022-08-25T23:32:00.319Z,18.05
2022-08-25T23:34:29.528Z,17.96
2022-08-25T23:36:58.787Z,17.99
2022-08-25T23:39:29.590Z,17.98
2022-08-25T23:41:59.690Z,18.07
2022-08-25T23:44:28.910Z,18.08
2022-08-25T23:46:57.945Z,18.09
2022-08-25T23:49:26.863Z,18.06
2022-08-25T23:51:56.724Z,18.08
2022-08-25T23:54:30.796Z,18.07
2022-08-25T23:57:02.211Z,18.10
2022-08-25T23:59:31.008Z,18.07
